sensor_id;sensor_type;location;lat;lon;timestamp;P1;durP1;ratioP1;P2;durP2;ratioP2
11763;SDS011;5939;56.522;14.950;2024-02-26T00:00:28;12.13;;;8.47;;
11763;SDS011;5939;56.522;14.950;2024-02-26T00:02:55;10.83;;;8.33;;
11763;SDS011;5939;56.522;14.950;2024-02-26T00:05:21;12.23;;;8.93;;
11763;SDS011;5939;56.522;14.950;2024-02-26T00:07:46;10.60;;;8.43;;
11763;SDS011;5939;56.522;14.950;2024-02-26T00:10:13;10.80;;;8.20;;
11763;SDS011;5939;56.522;14.950;2024-02-26T00:12:39;11.60;;;8.17;;
11763;SDS011;5939;56.522;14.950;2024-02-26T00:15:08;12.87;;;8.67;;
11763;SDS011;5939;56.522;14.950;2024-02-26T00:17:35;12.77;;;8.30;;
11763;SDS011;5939;56.522;14.950;2024-02-26T00:20:04;13.63;;;9.20;;
11763;SDS011;5939;56.522;14.950;2024-02-26T00:22:33;12.30;;;9.03;;
11763;SDS011;5939;56.522;14.950;2024-02-26T00:24:59;11.60;;;8.57;;
11763;SDS011;5939;56.522;14.950;2024-02-26T00:27:24;11.43;;;8.67;;
11763;SDS011;5939;56.522;14.950;2024-02-26T00:29:50;12.70;;;9.07;;
11763;SDS011;5939;56.522;14.950;2024-02-26T00:32:16;12.37;;;9.23;;
11763;SDS011;5939;56.522;14.950;2024-02-26T00:34:41;14.30;;;9.73;;
11763;SDS011;5939;56.522;14.950;2024-02-26T00:37:07;12.03;;;9.80;;
11763;SDS011;5939;56.522;14.950;2024-02-26T00:39:33;13.83;;;9.23;;
11763;SDS011;5939;56.522;14.950;2024-02-26T00:41:58;12.53;;;8.70;;
11763;SDS011;5939;56.522;14.950;2024-02-26T00:44:24;12.67;;;9.00;;
11763;SDS011;5939;56.522;14.950;2024-02-26T00:46:49;13.40;;;9.57;;
11763;SDS011;5939;56.522;14.950;2024-02-26T00:49:15;13.80;;;9.60;;
11763;SDS011;5939;56.522;14.950;2024-02-26T00:51:41;12.83;;;9.60;;
11763;SDS011;5939;56.522;14.950;2024-02-26T00:54:06;13.67;;;9.20;;
11763;SDS011;5939;56.522;14.950;2024-02-26T00:56:32;12.53;;;9.10;;
11763;SDS011;5939;56.522;14.950;2024-02-26T00:58:58;13.83;;;9.23;;
11763;SDS011;5939;56.522;14.950;2024-02-26T01:01:24;13.13;;;9.23;;
11763;SDS011;5939;56.522;14.950;2024-02-26T01:03:49;14.10;;;9.53;;
11763;SDS011;5939;56.522;14.950;2024-02-26T01:06:15;13.53;;;9.23;;
11763;SDS011;5939;56.522;14.950;2024-02-26T01:08:41;12.83;;;9.30;;
11763;SDS011;5939;56.522;14.950;2024-02-26T01:11:06;14.57;;;9.83;;
11763;SDS011;5939;56.522;14.950;2024-02-26T01:13:32;11.10;;;8.60;;
11763;SDS011;5939;56.522;14.950;2024-02-26T01:15:58;13.37;;;9.43;;
11763;SDS011;5939;56.522;14.950;2024-02-26T01:18:25;13.70;;;9.27;;
11763;SDS011;5939;56.522;14.950;2024-02-26T01:20:51;13.87;;;8.93;;
11763;SDS011;5939;56.522;14.950;2024-02-26T01:23:19;13.00;;;9.77;;
11763;SDS011;5939;56.522;14.950;2024-02-26T01:25:45;13.30;;;9.87;;
11763;SDS011;5939;56.522;14.950;2024-02-26T01:28:11;14.53;;;10.10;;
11763;SDS011;5939;56.522;14.950;2024-02-26T01:30:36;14.67;;;9.77;;
11763;SDS011;5939;56.522;14.950;2024-02-26T01:33:02;16.10;;;10.13;;
11763;SDS011;5939;56.522;14.950;2024-02-26T01:35:28;14.80;;;9.33;;
11763;SDS011;5939;56.522;14.950;2024-02-26T01:37:55;13.90;;;9.13;;
11763;SDS011;5939;56.522;14.950;2024-02-26T01:40:21;13.20;;;8.87;;
11763;SDS011;5939;56.522;14.950;2024-02-26T01:42:47;15.03;;;9.77;;
11763;SDS011;5939;56.522;14.950;2024-02-26T01:45:16;13.60;;;9.87;;
11763;SDS011;5939;56.522;14.950;2024-02-26T01:47:52;14.17;;;9.67;;
11763;SDS011;5939;56.522;14.950;2024-02-26T01:50:18;14.60;;;9.80;;
11763;SDS011;5939;56.522;14.950;2024-02-26T01:52:49;14.30;;;9.23;;
11763;SDS011;5939;56.522;14.950;2024-02-26T01:55:15;15.37;;;9.57;;
11763;SDS011;5939;56.522;14.950;2024-02-26T01:57:42;13.73;;;9.30;;
11763;SDS011;5939;56.522;14.950;2024-02-26T02:00:10;15.03;;;9.97;;
11763;SDS011;5939;56.522;14.950;2024-02-26T02:02:37;14.33;;;9.70;;
11763;SDS011;5939;56.522;14.950;2024-02-26T02:05:05;12.07;;;9.13;;
11763;SDS011;5939;56.522;14.950;2024-02-26T02:07:31;14.07;;;9.10;;
11763;SDS011;5939;56.522;14.950;2024-02-26T02:09:57;14.30;;;9.90;;
11763;SDS011;5939;56.522;14.950;2024-02-26T02:12:23;15.27;;;9.40;;
11763;SDS011;5939;56.522;14.950;2024-02-26T02:14:50;13.63;;;9.33;;
11763;SDS011;5939;56.522;14.950;2024-02-26T02:17:15;13.43;;;9.70;;
11763;SDS011;5939;56.522;14.950;2024-02-26T02:19:41;13.67;;;8.97;;
11763;SDS011;5939;56.522;14.950;2024-02-26T02:22:07;15.60;;;9.97;;
11763;SDS011;5939;56.522;14.950;2024-02-26T02:24:32;15.17;;;9.70;;
11763;SDS011;5939;56.522;14.950;2024-02-26T02:26:58;14.30;;;9.20;;
11763;SDS011;5939;56.522;14.950;2024-02-26T02:29:24;14.30;;;9.47;;
11763;SDS011;5939;56.522;14.950;2024-02-26T02:31:50;13.87;;;9.03;;
11763;SDS011;5939;56.522;14.950;2024-02-26T02:34:16;15.60;;;9.43;;
11763;SDS011;5939;56.522;14.950;2024-02-26T02:36:48;15.17;;;9.43;;
11763;SDS011;5939;56.522;14.950;2024-02-26T02:39:16;13.83;;;8.90;;
11763;SDS011;5939;56.522;14.950;2024-02-26T02:41:42;12.20;;;8.57;;
11763;SDS011;5939;56.522;14.950;2024-02-26T02:44:07;16.93;;;9.67;;
11763;SDS011;5939;56.522;14.950;2024-02-26T02:46:33;15.73;;;9.87;;
11763;SDS011;5939;56.522;14.950;2024-02-26T02:49:00;15.40;;;10.03;;
11763;SDS011;5939;56.522;14.950;2024-02-26T02:51:26;15.03;;;9.60;;
11763;SDS011;5939;56.522;14.950;2024-02-26T02:53:51;12.87;;;8.73;;
11763;SDS011;5939;56.522;14.950;2024-02-26T02:56:17;14.17;;;9.73;;
11763;SDS011;5939;56.522;14.950;2024-02-26T02:58:43;14.97;;;9.20;;
11763;SDS011;5939;56.522;14.950;2024-02-26T03:01:08;13.83;;;9.10;;
11763;SDS011;5939;56.522;14.950;2024-02-26T03:03:34;12.83;;;8.73;;
11763;SDS011;5939;56.522;14.950;2024-02-26T03:06:01;14.63;;;9.77;;
11763;SDS011;5939;56.522;14.950;2024-02-26T03:08:27;14.33;;;8.87;;
11763;SDS011;5939;56.522;14.950;2024-02-26T03:10:54;14.10;;;9.53;;
11763;SDS011;5939;56.522;14.950;2024-02-26T03:13:19;14.53;;;8.87;;
11763;SDS011;5939;56.522;14.950;2024-02-26T03:15:45;13.03;;;8.97;;
11763;SDS011;5939;56.522;14.950;2024-02-26T03:18:11;12.50;;;8.63;;
11763;SDS011;5939;56.522;14.950;2024-02-26T03:20:36;14.03;;;8.60;;
11763;SDS011;5939;56.522;14.950;2024-02-26T03:23:02;13.33;;;8.80;;
11763;SDS011;5939;56.522;14.950;2024-02-26T03:25:28;12.53;;;8.47;;
11763;SDS011;5939;56.522;14.950;2024-02-26T03:27:54;12.23;;;8.17;;
11763;SDS011;5939;56.522;14.950;2024-02-26T03:30:19;13.00;;;8.90;;
11763;SDS011;5939;56.522;14.950;2024-02-26T03:32:45;12.23;;;8.27;;
11763;SDS011;5939;56.522;14.950;2024-02-26T03:35:12;12.23;;;8.20;;
11763;SDS011;5939;56.522;14.950;2024-02-26T03:37:38;11.93;;;8.43;;
11763;SDS011;5939;56.522;14.950;2024-02-26T03:40:04;10.47;;;7.47;;
11763;SDS011;5939;56.522;14.950;2024-02-26T03:42:30;12.07;;;8.10;;
11763;SDS011;5939;56.522;14.950;2024-02-26T03:44:55;12.00;;;7.77;;
11763;SDS011;5939;56.522;14.950;2024-02-26T03:47:21;11.93;;;7.80;;
11763;SDS011;5939;56.522;14.950;2024-02-26T03:49:47;10.97;;;7.90;;
11763;SDS011;5939;56.522;14.950;2024-02-26T03:52:12;12.00;;;7.83;;
11763;SDS011;5939;56.522;14.950;2024-02-26T03:54:38;11.67;;;7.57;;
11763;SDS011;5939;56.522;14.950;2024-02-26T03:57:04;9.87;;;7.00;;
11763;SDS011;5939;56.522;14.950;2024-02-26T03:59:29;10.30;;;7.07;;
11763;SDS011;5939;56.522;14.950;2024-02-26T04:01:55;9.77;;;6.90;;
11763;SDS011;5939;56.522;14.950;2024-02-26T04:04:21;11.43;;;7.27;;
11763;SDS011;5939;56.522;14.950;2024-02-26T04:06:46;9.53;;;6.90;;
11763;SDS011;5939;56.522;14.950;2024-02-26T04:09:15;11.30;;;7.53;;
11763;SDS011;5939;56.522;14.950;2024-02-26T04:11:41;9.67;;;6.43;;
11763;SDS011;5939;56.522;14.950;2024-02-26T04:14:08;10.00;;;6.90;;
11763;SDS011;5939;56.522;14.950;2024-02-26T04:16:34;9.03;;;6.73;;
11763;SDS011;5939;56.522;14.950;2024-02-26T04:19:03;8.70;;;6.80;;
11763;SDS011;5939;56.522;14.950;2024-02-26T04:21:28;8.63;;;6.07;;
11763;SDS011;5939;56.522;14.950;2024-02-26T04:23:54;7.90;;;5.90;;
11763;SDS011;5939;56.522;14.950;2024-02-26T04:26:20;8.27;;;6.07;;
11763;SDS011;5939;56.522;14.950;2024-02-26T04:28:46;8.83;;;6.30;;
11763;SDS011;5939;56.522;14.950;2024-02-26T04:31:12;8.37;;;6.30;;
11763;SDS011;5939;56.522;14.950;2024-02-26T04:33:38;8.00;;;5.30;;
11763;SDS011;5939;56.522;14.950;2024-02-26T04:36:03;7.57;;;5.87;;
11763;SDS011;5939;56.522;14.950;2024-02-26T04:38:29;7.30;;;5.83;;
11763;SDS011;5939;56.522;14.950;2024-02-26T04:40:55;7.97;;;5.60;;
11763;SDS011;5939;56.522;14.950;2024-02-26T04:43:21;7.47;;;5.50;;
11763;SDS011;5939;56.522;14.950;2024-02-26T04:45:46;7.87;;;5.03;;
11763;SDS011;5939;56.522;14.950;2024-02-26T04:48:13;8.40;;;5.73;;
11763;SDS011;5939;56.522;14.950;2024-02-26T04:50:38;6.97;;;5.67;;
11763;SDS011;5939;56.522;14.950;2024-02-26T04:53:04;8.53;;;5.67;;
11763;SDS011;5939;56.522;14.950;2024-02-26T04:55:29;6.73;;;5.47;;
11763;SDS011;5939;56.522;14.950;2024-02-26T04:57:55;6.83;;;5.27;;
11763;SDS011;5939;56.522;14.950;2024-02-26T05:00:21;5.97;;;5.37;;
11763;SDS011;5939;56.522;14.950;2024-02-26T05:02:46;7.33;;;5.07;;
11763;SDS011;5939;56.522;14.950;2024-02-26T05:05:12;8.17;;;5.57;;
11763;SDS011;5939;56.522;14.950;2024-02-26T05:07:41;6.57;;;5.10;;
11763;SDS011;5939;56.522;14.950;2024-02-26T05:10:07;7.87;;;5.20;;
11763;SDS011;5939;56.522;14.950;2024-02-26T05:12:33;7.50;;;5.30;;
11763;SDS011;5939;56.522;14.950;2024-02-26T05:15:00;5.77;;;4.60;;
11763;SDS011;5939;56.522;14.950;2024-02-26T05:17:27;6.73;;;5.10;;
11763;SDS011;5939;56.522;14.950;2024-02-26T05:19:53;5.87;;;4.77;;
11763;SDS011;5939;56.522;14.950;2024-02-26T05:22:18;7.03;;;5.00;;
11763;SDS011;5939;56.522;14.950;2024-02-26T05:24:44;6.47;;;4.97;;
11763;SDS011;5939;56.522;14.950;2024-02-26T05:27:10;6.40;;;4.67;;
11763;SDS011;5939;56.522;14.950;2024-02-26T05:29:37;7.20;;;5.27;;
11763;SDS011;5939;56.522;14.950;2024-02-26T05:32:03;7.40;;;5.50;;
11763;SDS011;5939;56.522;14.950;2024-02-26T05:34:30;5.60;;;4.83;;
11763;SDS011;5939;56.522;14.950;2024-02-26T05:36:55;6.53;;;5.23;;
11763;SDS011;5939;56.522;14.950;2024-02-26T05:39:21;5.33;;;4.70;;
11763;SDS011;5939;56.522;14.950;2024-02-26T05:41:47;6.87;;;5.17;;
11763;SDS011;5939;56.522;14.950;2024-02-26T05:44:14;6.40;;;5.17;;
11763;SDS011;5939;56.522;14.950;2024-02-26T05:46:41;8.00;;;5.30;;
11763;SDS011;5939;56.522;14.950;2024-02-26T05:49:07;5.80;;;4.70;;
11763;SDS011;5939;56.522;14.950;2024-02-26T05:51:32;7.57;;;4.90;;
11763;SDS011;5939;56.522;14.950;2024-02-26T05:53:58;6.83;;;5.10;;
11763;SDS011;5939;56.522;14.950;2024-02-26T05:56:24;9.33;;;4.77;;
11763;SDS011;5939;56.522;14.950;2024-02-26T05:58:49;5.80;;;4.73;;
11763;SDS011;5939;56.522;14.950;2024-02-26T06:01:16;6.53;;;4.77;;
11763;SDS011;5939;56.522;14.950;2024-02-26T06:03:42;6.30;;;4.60;;
11763;SDS011;5939;56.522;14.950;2024-02-26T06:06:09;5.43;;;4.50;;
11763;SDS011;5939;56.522;14.950;2024-02-26T06:08:35;5.80;;;4.47;;
11763;SDS011;5939;56.522;14.950;2024-02-26T06:11:07;5.07;;;4.20;;
11763;SDS011;5939;56.522;14.950;2024-02-26T06:13:33;5.97;;;4.73;;
11763;SDS011;5939;56.522;14.950;2024-02-26T06:15:59;5.83;;;4.50;;
11763;SDS011;5939;56.522;14.950;2024-02-26T06:18:25;5.37;;;4.40;;
11763;SDS011;5939;56.522;14.950;2024-02-26T06:20:51;6.27;;;4.60;;
11763;SDS011;5939;56.522;14.950;2024-02-26T06:23:17;5.43;;;4.70;;
11763;SDS011;5939;56.522;14.950;2024-02-26T06:25:42;5.63;;;4.10;;
11763;SDS011;5939;56.522;14.950;2024-02-26T06:28:08;5.07;;;4.43;;
11763;SDS011;5939;56.522;14.950;2024-02-26T06:30:34;5.33;;;4.27;;
11763;SDS011;5939;56.522;14.950;2024-02-26T06:33:00;5.20;;;4.40;;
11763;SDS011;5939;56.522;14.950;2024-02-26T06:35:26;6.23;;;4.70;;
11763;SDS011;5939;56.522;14.950;2024-02-26T06:37:52;5.23;;;4.50;;
11763;SDS011;5939;56.522;14.950;2024-02-26T06:40:18;4.90;;;4.00;;
11763;SDS011;5939;56.522;14.950;2024-02-26T06:42:44;5.80;;;4.87;;
11763;SDS011;5939;56.522;14.950;2024-02-26T06:45:10;4.70;;;4.07;;
11763;SDS011;5939;56.522;14.950;2024-02-26T06:47:36;4.73;;;4.23;;
11763;SDS011;5939;56.522;14.950;2024-02-26T06:50:01;4.83;;;4.00;;
11763;SDS011;5939;56.522;14.950;2024-02-26T06:52:28;5.30;;;4.17;;
11763;SDS011;5939;56.522;14.950;2024-02-26T06:54:53;4.50;;;3.83;;
11763;SDS011;5939;56.522;14.950;2024-02-26T06:57:19;4.50;;;4.03;;
11763;SDS011;5939;56.522;14.950;2024-02-26T06:59:45;4.57;;;4.10;;
11763;SDS011;5939;56.522;14.950;2024-02-26T07:02:12;5.20;;;4.27;;
11763;SDS011;5939;56.522;14.950;2024-02-26T07:04:38;5.63;;;4.57;;
11763;SDS011;5939;56.522;14.950;2024-02-26T07:07:05;4.93;;;4.17;;
11763;SDS011;5939;56.522;14.950;2024-02-26T07:09:32;5.30;;;4.10;;
11763;SDS011;5939;56.522;14.950;2024-02-26T07:11:57;4.70;;;4.17;;
11763;SDS011;5939;56.522;14.950;2024-02-26T07:14:23;5.43;;;4.30;;
11763;SDS011;5939;56.522;14.950;2024-02-26T07:16:49;4.77;;;4.20;;
11763;SDS011;5939;56.522;14.950;2024-02-26T07:19:15;4.47;;;3.97;;
11763;SDS011;5939;56.522;14.950;2024-02-26T07:21:41;4.90;;;4.20;;
11763;SDS011;5939;56.522;14.950;2024-02-26T07:24:07;5.27;;;4.77;;
11763;SDS011;5939;56.522;14.950;2024-02-26T07:26:33;5.77;;;4.50;;
11763;SDS011;5939;56.522;14.950;2024-02-26T07:28:59;5.50;;;4.50;;
11763;SDS011;5939;56.522;14.950;2024-02-26T07:31:26;4.93;;;4.30;;
11763;SDS011;5939;56.522;14.950;2024-02-26T07:33:51;5.13;;;4.50;;
11763;SDS011;5939;56.522;14.950;2024-02-26T07:36:17;5.37;;;4.30;;
11763;SDS011;5939;56.522;14.950;2024-02-26T07:38:43;6.07;;;4.60;;
11763;SDS011;5939;56.522;14.950;2024-02-26T07:41:08;4.70;;;4.17;;
11763;SDS011;5939;56.522;14.950;2024-02-26T07:43:34;4.97;;;4.33;;
11763;SDS011;5939;56.522;14.950;2024-02-26T07:46:00;4.90;;;4.40;;
11763;SDS011;5939;56.522;14.950;2024-02-26T07:48:26;5.33;;;4.30;;
11763;SDS011;5939;56.522;14.950;2024-02-26T07:50:51;4.93;;;4.30;;
11763;SDS011;5939;56.522;14.950;2024-02-26T07:53:17;4.43;;;3.97;;
11763;SDS011;5939;56.522;14.950;2024-02-26T07:55:43;4.97;;;4.43;;
11763;SDS011;5939;56.522;14.950;2024-02-26T07:58:08;4.80;;;4.30;;
11763;SDS011;5939;56.522;14.950;2024-02-26T08:00:34;4.93;;;4.30;;
11763;SDS011;5939;56.522;14.950;2024-02-26T08:03:00;4.70;;;4.20;;
11763;SDS011;5939;56.522;14.950;2024-02-26T08:05:26;4.87;;;4.23;;
11763;SDS011;5939;56.522;14.950;2024-02-26T08:07:51;4.97;;;3.83;;
11763;SDS011;5939;56.522;14.950;2024-02-26T08:10:17;4.53;;;3.97;;
11763;SDS011;5939;56.522;14.950;2024-02-26T08:12:43;4.80;;;4.30;;
11763;SDS011;5939;56.522;14.950;2024-02-26T08:15:10;5.37;;;4.43;;
11763;SDS011;5939;56.522;14.950;2024-02-26T08:17:36;4.30;;;3.90;;
11763;SDS011;5939;56.522;14.950;2024-02-26T08:20:02;4.03;;;3.60;;
11763;SDS011;5939;56.522;14.950;2024-02-26T08:22:28;5.27;;;4.27;;
11763;SDS011;5939;56.522;14.950;2024-02-26T08:24:53;5.83;;;4.47;;
11763;SDS011;5939;56.522;14.950;2024-02-26T08:27:19;4.63;;;4.00;;
11763;SDS011;5939;56.522;14.950;2024-02-26T08:29:45;4.37;;;3.83;;
11763;SDS011;5939;56.522;14.950;2024-02-26T08:32:10;4.70;;;4.20;;
11763;SDS011;5939;56.522;14.950;2024-02-26T08:34:36;4.73;;;4.23;;
11763;SDS011;5939;56.522;14.950;2024-02-26T08:37:02;4.67;;;4.17;;
11763;SDS011;5939;56.522;14.950;2024-02-26T08:39:28;4.63;;;4.03;;
11763;SDS011;5939;56.522;14.950;2024-02-26T08:41:54;5.00;;;4.20;;
11763;SDS011;5939;56.522;14.950;2024-02-26T08:44:19;4.83;;;4.17;;
11763;SDS011;5939;56.522;14.950;2024-02-26T08:46:45;6.13;;;4.73;;
11763;SDS011;5939;56.522;14.950;2024-02-26T08:49:11;5.03;;;4.20;;
11763;SDS011;5939;56.522;14.950;2024-02-26T08:51:41;5.77;;;4.40;;
11763;SDS011;5939;56.522;14.950;2024-02-26T08:54:08;4.83;;;4.17;;
11763;SDS011;5939;56.522;14.950;2024-02-26T08:56:33;5.13;;;4.37;;
11763;SDS011;5939;56.522;14.950;2024-02-26T08:58:59;5.57;;;4.50;;
11763;SDS011;5939;56.522;14.950;2024-02-26T09:01:28;4.83;;;4.30;;
11763;SDS011;5939;56.522;14.950;2024-02-26T09:03:55;4.87;;;4.37;;
11763;SDS011;5939;56.522;14.950;2024-02-26T09:06:21;5.00;;;4.50;;
11763;SDS011;5939;56.522;14.950;2024-02-26T09:08:47;4.90;;;4.17;;
11763;SDS011;5939;56.522;14.950;2024-02-26T09:11:13;5.00;;;4.47;;
11763;SDS011;5939;56.522;14.950;2024-02-26T09:13:38;4.27;;;3.87;;
11763;SDS011;5939;56.522;14.950;2024-02-26T09:16:05;5.63;;;4.90;;
11763;SDS011;5939;56.522;14.950;2024-02-26T09:18:31;4.97;;;4.43;;
11763;SDS011;5939;56.522;14.950;2024-02-26T09:20:56;6.33;;;4.47;;
11763;SDS011;5939;56.522;14.950;2024-02-26T09:23:22;5.73;;;4.90;;
11763;SDS011;5939;56.522;14.950;2024-02-26T09:25:48;6.70;;;5.00;;
11763;SDS011;5939;56.522;14.950;2024-02-26T09:28:13;5.70;;;4.67;;
11763;SDS011;5939;56.522;14.950;2024-02-26T09:30:42;5.20;;;4.70;;
11763;SDS011;5939;56.522;14.950;2024-02-26T09:33:08;5.20;;;4.40;;
11763;SDS011;5939;56.522;14.950;2024-02-26T09:35:34;5.13;;;4.40;;
11763;SDS011;5939;56.522;14.950;2024-02-26T09:37:59;5.70;;;4.60;;
11763;SDS011;5939;56.522;14.950;2024-02-26T09:40:25;7.80;;;5.10;;
11763;SDS011;5939;56.522;14.950;2024-02-26T09:42:53;6.43;;;5.20;;
11763;SDS011;5939;56.522;14.950;2024-02-26T09:45:24;6.30;;;5.07;;
11763;SDS011;5939;56.522;14.950;2024-02-26T09:47:52;6.33;;;5.53;;
11763;SDS011;5939;56.522;14.950;2024-02-26T09:50:20;6.60;;;5.40;;
11763;SDS011;5939;56.522;14.950;2024-02-26T09:52:47;6.00;;;5.40;;
11763;SDS011;5939;56.522;14.950;2024-02-26T09:55:14;6.97;;;5.73;;
11763;SDS011;5939;56.522;14.950;2024-02-26T09:57:44;5.93;;;5.33;;
11763;SDS011;5939;56.522;14.950;2024-02-26T10:00:15;5.80;;;5.10;;
11763;SDS011;5939;56.522;14.950;2024-02-26T10:02:45;5.93;;;4.80;;
11763;SDS011;5939;56.522;14.950;2024-02-26T10:05:14;7.47;;;5.53;;
11763;SDS011;5939;56.522;14.950;2024-02-26T10:07:45;5.43;;;4.80;;
11763;SDS011;5939;56.522;14.950;2024-02-26T10:10:12;6.33;;;5.70;;
11763;SDS011;5939;56.522;14.950;2024-02-26T10:12:38;7.83;;;5.97;;
11763;SDS011;5939;56.522;14.950;2024-02-26T10:15:04;7.30;;;5.87;;
11763;SDS011;5939;56.522;14.950;2024-02-26T10:17:30;5.23;;;4.37;;
11763;SDS011;5939;56.522;14.950;2024-02-26T10:20:10;6.33;;;5.17;;
11763;SDS011;5939;56.522;14.950;2024-02-26T10:22:37;7.43;;;6.10;;
11763;SDS011;5939;56.522;14.950;2024-02-26T10:25:03;7.20;;;5.60;;
11763;SDS011;5939;56.522;14.950;2024-02-26T10:27:28;8.33;;;6.10;;
11763;SDS011;5939;56.522;14.950;2024-02-26T10:29:56;6.80;;;5.87;;
11763;SDS011;5939;56.522;14.950;2024-02-26T10:32:22;7.93;;;5.70;;
11763;SDS011;5939;56.522;14.950;2024-02-26T10:34:48;6.70;;;5.70;;
11763;SDS011;5939;56.522;14.950;2024-02-26T10:37:13;7.60;;;6.37;;
11763;SDS011;5939;56.522;14.950;2024-02-26T10:39:39;9.00;;;6.53;;
11763;SDS011;5939;56.522;14.950;2024-02-26T10:42:12;7.70;;;6.00;;
11763;SDS011;5939;56.522;14.950;2024-02-26T10:44:39;7.90;;;6.50;;
11763;SDS011;5939;56.522;14.950;2024-02-26T10:47:07;6.67;;;5.87;;
11763;SDS011;5939;56.522;14.950;2024-02-26T10:49:33;8.27;;;6.27;;
11763;SDS011;5939;56.522;14.950;2024-02-26T10:52:00;7.97;;;6.20;;
11763;SDS011;5939;56.522;14.950;2024-02-26T10:54:29;9.17;;;7.13;;
11763;SDS011;5939;56.522;14.950;2024-02-26T10:56:57;8.20;;;7.00;;
11763;SDS011;5939;56.522;14.950;2024-02-26T10:59:23;9.40;;;7.03;;
11763;SDS011;5939;56.522;14.950;2024-02-26T11:01:50;9.57;;;6.70;;
11763;SDS011;5939;56.522;14.950;2024-02-26T11:04:16;8.80;;;7.13;;
11763;SDS011;5939;56.522;14.950;2024-02-26T11:06:44;8.63;;;7.10;;
11763;SDS011;5939;56.522;14.950;2024-02-26T11:09:11;9.23;;;6.93;;
11763;SDS011;5939;56.522;14.950;2024-02-26T11:11:38;7.87;;;6.77;;
11763;SDS011;5939;56.522;14.950;2024-02-26T11:14:05;8.00;;;6.77;;
11763;SDS011;5939;56.522;14.950;2024-02-26T11:16:33;7.43;;;6.53;;
11763;SDS011;5939;56.522;14.950;2024-02-26T11:19:01;10.43;;;7.57;;
11763;SDS011;5939;56.522;14.950;2024-02-26T11:21:27;8.17;;;7.10;;
11763;SDS011;5939;56.522;14.950;2024-02-26T11:24:03;9.10;;;7.10;;
11763;SDS011;5939;56.522;14.950;2024-02-26T11:26:31;8.97;;;6.63;;
11763;SDS011;5939;56.522;14.950;2024-02-26T11:28:59;10.43;;;6.40;;
11763;SDS011;5939;56.522;14.950;2024-02-26T11:31:26;11.77;;;6.73;;
11763;SDS011;5939;56.522;14.950;2024-02-26T11:33:53;10.33;;;7.07;;
11763;SDS011;5939;56.522;14.950;2024-02-26T11:36:20;9.67;;;6.70;;
11763;SDS011;5939;56.522;14.950;2024-02-26T11:38:48;10.67;;;6.37;;
11763;SDS011;5939;56.522;14.950;2024-02-26T11:41:16;9.33;;;6.50;;
11763;SDS011;5939;56.522;14.950;2024-02-26T11:43:49;8.00;;;6.53;;
11763;SDS011;5939;56.522;14.950;2024-02-26T11:46:38;9.93;;;6.53;;
11763;SDS011;5939;56.522;14.950;2024-02-26T11:51:51;7.80;;;6.40;;
11763;SDS011;5939;56.522;14.950;2024-02-26T11:59:50;8.27;;;6.40;;
11763;SDS011;5939;56.522;14.950;2024-02-26T12:03:01;8.37;;;5.97;;
11763;SDS011;5939;56.522;14.950;2024-02-26T12:05:15;9.67;;;6.47;;
11763;SDS011;5939;56.522;14.950;2024-02-26T12:10:25;9.03;;;5.90;;
11763;SDS011;5939;56.522;14.950;2024-02-26T12:13:14;8.40;;;5.80;;
11763;SDS011;5939;56.522;14.950;2024-02-26T12:15:54;6.50;;;5.33;;
11763;SDS011;5939;56.522;14.950;2024-02-26T12:18:21;7.83;;;6.13;;
11763;SDS011;5939;56.522;14.950;2024-02-26T12:21:03;8.27;;;6.27;;
11763;SDS011;5939;56.522;14.950;2024-02-26T12:23:29;7.63;;;6.03;;
11763;SDS011;5939;56.522;14.950;2024-02-26T12:26:01;7.73;;;5.60;;
11763;SDS011;5939;56.522;14.950;2024-02-26T12:28:30;6.60;;;5.37;;
11763;SDS011;5939;56.522;14.950;2024-02-26T12:30:56;8.87;;;5.83;;
11763;SDS011;5939;56.522;14.950;2024-02-26T12:33:24;7.53;;;5.83;;
11763;SDS011;5939;56.522;14.950;2024-02-26T12:35:51;8.20;;;5.97;;
11763;SDS011;5939;56.522;14.950;2024-02-26T12:38:18;6.90;;;5.53;;
11763;SDS011;5939;56.522;14.950;2024-02-26T12:40:44;8.27;;;6.13;;
11763;SDS011;5939;56.522;14.950;2024-02-26T12:43:10;7.13;;;5.20;;
11763;SDS011;5939;56.522;14.950;2024-02-26T12:45:40;6.70;;;5.60;;
11763;SDS011;5939;56.522;14.950;2024-02-26T12:48:06;7.07;;;5.67;;
11763;SDS011;5939;56.522;14.950;2024-02-26T12:50:34;8.23;;;6.00;;
11763;SDS011;5939;56.522;14.950;2024-02-26T12:52:59;6.53;;;5.33;;
11763;SDS011;5939;56.522;14.950;2024-02-26T12:55:25;5.97;;;5.23;;
11763;SDS011;5939;56.522;14.950;2024-02-26T12:57:52;8.43;;;5.80;;
11763;SDS011;5939;56.522;14.950;2024-02-26T13:00:18;7.87;;;5.83;;
11763;SDS011;5939;56.522;14.950;2024-02-26T13:02:47;7.30;;;5.93;;
11763;SDS011;5939;56.522;14.950;2024-02-26T13:05:15;8.80;;;5.90;;
11763;SDS011;5939;56.522;14.950;2024-02-26T13:07:45;6.10;;;5.50;;
11763;SDS011;5939;56.522;14.950;2024-02-26T13:10:15;8.30;;;5.83;;
11763;SDS011;5939;56.522;14.950;2024-02-26T13:12:47;6.83;;;5.33;;
11763;SDS011;5939;56.522;14.950;2024-02-26T13:15:17;6.50;;;5.80;;
11763;SDS011;5939;56.522;14.950;2024-02-26T13:17:44;6.73;;;5.37;;
11763;SDS011;5939;56.522;14.950;2024-02-26T13:20:10;5.77;;;5.13;;
11763;SDS011;5939;56.522;14.950;2024-02-26T13:22:36;7.40;;;5.47;;
11763;SDS011;5939;56.522;14.950;2024-02-26T13:25:02;6.80;;;5.43;;
11763;SDS011;5939;56.522;14.950;2024-02-26T13:27:29;6.57;;;5.47;;
11763;SDS011;5939;56.522;14.950;2024-02-26T13:32:35;7.13;;;5.53;;
11763;SDS011;5939;56.522;14.950;2024-02-26T13:35:08;6.43;;;5.63;;
11763;SDS011;5939;56.522;14.950;2024-02-26T13:37:36;6.40;;;5.30;;
11763;SDS011;5939;56.522;14.950;2024-02-26T13:40:05;8.37;;;5.53;;
11763;SDS011;5939;56.522;14.950;2024-02-26T13:42:33;5.93;;;5.07;;
11763;SDS011;5939;56.522;14.950;2024-02-26T13:45:00;5.40;;;4.90;;
11763;SDS011;5939;56.522;14.950;2024-02-26T13:47:25;6.40;;;5.10;;
11763;SDS011;5939;56.522;14.950;2024-02-26T13:49:51;6.37;;;5.63;;
11763;SDS011;5939;56.522;14.950;2024-02-26T13:52:17;6.43;;;5.03;;
11763;SDS011;5939;56.522;14.950;2024-02-26T13:54:45;6.97;;;5.00;;
11763;SDS011;5939;56.522;14.950;2024-02-26T13:57:11;5.60;;;4.93;;
11763;SDS011;5939;56.522;14.950;2024-02-26T13:59:37;6.37;;;5.43;;
11763;SDS011;5939;56.522;14.950;2024-02-26T14:02:06;5.90;;;5.03;;
11763;SDS011;5939;56.522;14.950;2024-02-26T14:04:32;5.60;;;5.00;;
11763;SDS011;5939;56.522;14.950;2024-02-26T14:06:58;6.23;;;4.93;;
11763;SDS011;5939;56.522;14.950;2024-02-26T14:09:23;6.80;;;4.80;;
11763;SDS011;5939;56.522;14.950;2024-02-26T14:11:49;6.23;;;4.43;;
11763;SDS011;5939;56.522;14.950;2024-02-26T14:14:15;6.07;;;5.07;;
11763;SDS011;5939;56.522;14.950;2024-02-26T14:16:40;5.93;;;5.10;;
11763;SDS011;5939;56.522;14.950;2024-02-26T14:19:06;6.50;;;4.80;;
11763;SDS011;5939;56.522;14.950;2024-02-26T14:21:32;6.27;;;4.33;;
11763;SDS011;5939;56.522;14.950;2024-02-26T14:23:57;6.23;;;5.00;;
11763;SDS011;5939;56.522;14.950;2024-02-26T14:26:23;5.73;;;4.47;;
11763;SDS011;5939;56.522;14.950;2024-02-26T14:28:49;4.87;;;4.20;;
11763;SDS011;5939;56.522;14.950;2024-02-26T14:31:18;6.30;;;4.70;;
11763;SDS011;5939;56.522;14.950;2024-02-26T14:33:43;6.13;;;4.63;;
11763;SDS011;5939;56.522;14.950;2024-02-26T14:36:10;6.07;;;4.90;;
11763;SDS011;5939;56.522;14.950;2024-02-26T14:38:36;5.33;;;4.57;;
11763;SDS011;5939;56.522;14.950;2024-02-26T14:41:03;4.70;;;4.07;;
11763;SDS011;5939;56.522;14.950;2024-02-26T14:43:29;6.33;;;4.40;;
11763;SDS011;5939;56.522;14.950;2024-02-26T14:45:57;5.13;;;4.20;;
11763;SDS011;5939;56.522;14.950;2024-02-26T14:48:24;5.07;;;4.20;;
11763;SDS011;5939;56.522;14.950;2024-02-26T14:50:49;5.00;;;4.17;;
11763;SDS011;5939;56.522;14.950;2024-02-26T14:53:15;4.40;;;4.00;;